sensor_id;sensor_type;location;lat;lon;timestamp;P1;durP1;ratioP1;P2;durP2;ratioP2
16845;SDS011;8539;53.188;8.696;2023-04-29T00:01:33;54.30;;;39.25;;
16845;SDS011;8539;53.188;8.696;2023-04-29T00:04:00;55.90;;;38.75;;
16845;SDS011;8539;53.188;8.696;2023-04-29T00:06:26;56.30;;;39.08;;
16845;SDS011;8539;53.188;8.696;2023-04-29T00:08:52;63.70;;;38.95;;
16845;SDS011;8539;53.188;8.696;2023-04-29T00:11:18;53.33;;;37.35;;
16845;SDS011;8539;53.188;8.696;2023-04-29T00:13:45;52.08;;;39.33;;
16845;SDS011;8539;53.188;8.696;2023-04-29T00:16:11;52.25;;;37.47;;
16845;SDS011;8539;53.188;8.696;2023-04-29T00:18:38;50.67;;;38.28;;
16845;SDS011;8539;53.188;8.696;2023-04-29T00:21:04;49.65;;;36.08;;
16845;SDS011;8539;53.188;8.696;2023-04-29T00:23:31;44.85;;;34.70;;
16845;SDS011;8539;53.188;8.696;2023-04-29T00:26:03;51.03;;;36.40;;
16845;SDS011;8539;53.188;8.696;2023-04-29T00:28:29;56.30;;;36.65;;
16845;SDS011;8539;53.188;8.696;2023-04-29T00:30:55;45.15;;;33.53;;
16845;SDS011;8539;53.188;8.696;2023-04-29T00:33:21;53.38;;;36.70;;
16845;SDS011;8539;53.188;8.696;2023-04-29T00:35:47;47.33;;;34.65;;
16845;SDS011;8539;53.188;8.696;2023-04-29T00:38:13;46.38;;;32.72;;
16845;SDS011;8539;53.188;8.696;2023-04-29T00:40:41;42.92;;;34.20;;
16845;SDS011;8539;53.188;8.696;2023-04-29T00:43:08;44.90;;;34.28;;
16845;SDS011;8539;53.188;8.696;2023-04-29T00:45:34;44.88;;;31.55;;
16845;SDS011;8539;53.188;8.696;2023-04-29T00:48:00;42.72;;;31.38;;
16845;SDS011;8539;53.188;8.696;2023-04-29T00:50:26;44.38;;;29.50;;
16845;SDS011;8539;53.188;8.696;2023-04-29T00:52:52;35.97;;;29.45;;
16845;SDS011;8539;53.188;8.696;2023-04-29T00:55:19;40.58;;;29.80;;
16845;SDS011;8539;53.188;8.696;2023-04-29T00:57:45;37.63;;;29.98;;
16845;SDS011;8539;53.188;8.696;2023-04-29T01:00:17;43.28;;;29.70;;
16845;SDS011;8539;53.188;8.696;2023-04-29T01:02:43;39.50;;;29.10;;
16845;SDS011;8539;53.188;8.696;2023-04-29T01:05:10;40.35;;;27.30;;
16845;SDS011;8539;53.188;8.696;2023-04-29T01:07:41;44.55;;;29.02;;
16845;SDS011;8539;53.188;8.696;2023-04-29T01:10:26;36.88;;;27.05;;
16845;SDS011;8539;53.188;8.696;2023-04-29T01:12:57;35.90;;;27.20;;
16845;SDS011;8539;53.188;8.696;2023-04-29T01:15:29;43.15;;;28.02;;
16845;SDS011;8539;53.188;8.696;2023-04-29T01:18:02;41.47;;;26.52;;
16845;SDS011;8539;53.188;8.696;2023-04-29T01:20:49;33.17;;;25.88;;
16845;SDS011;8539;53.188;8.696;2023-04-29T01:23:15;39.17;;;27.75;;
16845;SDS011;8539;53.188;8.696;2023-04-29T01:25:41;36.25;;;24.95;;
16845;SDS011;8539;53.188;8.696;2023-04-29T01:28:28;33.83;;;26.67;;
16845;SDS011;8539;53.188;8.696;2023-04-29T01:31:18;37.92;;;26.10;;
16845;SDS011;8539;53.188;8.696;2023-04-29T01:39:26;37.72;;;25.30;;
16845;SDS011;8539;53.188;8.696;2023-04-29T01:42:09;31.85;;;23.13;;
16845;SDS011;8539;53.188;8.696;2023-04-29T01:44:44;43.97;;;24.77;;
16845;SDS011;8539;53.188;8.696;2023-04-29T01:47:13;31.00;;;21.60;;
16845;SDS011;8539;53.188;8.696;2023-04-29T01:49:40;31.45;;;21.15;;
16845;SDS011;8539;53.188;8.696;2023-04-29T01:52:06;29.42;;;23.58;;
16845;SDS011;8539;53.188;8.696;2023-04-29T01:54:32;31.17;;;22.92;;
16845;SDS011;8539;53.188;8.696;2023-04-29T01:57:01;33.67;;;23.55;;
16845;SDS011;8539;53.188;8.696;2023-04-29T01:59:27;32.15;;;22.65;;
16845;SDS011;8539;53.188;8.696;2023-04-29T02:01:53;31.35;;;22.13;;
16845;SDS011;8539;53.188;8.696;2023-04-29T02:04:21;32.78;;;22.05;;
16845;SDS011;8539;53.188;8.696;2023-04-29T02:06:48;32.15;;;21.67;;
16845;SDS011;8539;53.188;8.696;2023-04-29T02:09:15;31.10;;;22.42;;
16845;SDS011;8539;53.188;8.696;2023-04-29T02:11:41;34.95;;;23.02;;
16845;SDS011;8539;53.188;8.696;2023-04-29T02:14:07;31.85;;;22.05;;
16845;SDS011;8539;53.188;8.696;2023-04-29T02:16:33;30.13;;;21.50;;
16845;SDS011;8539;53.188;8.696;2023-04-29T02:18:59;30.40;;;21.83;;
16845;SDS011;8539;53.188;8.696;2023-04-29T02:21:25;29.35;;;21.15;;
16845;SDS011;8539;53.188;8.696;2023-04-29T02:23:51;32.47;;;22.10;;
16845;SDS011;8539;53.188;8.696;2023-04-29T02:26:19;30.95;;;21.98;;
16845;SDS011;8539;53.188;8.696;2023-04-29T02:28:45;28.42;;;21.42;;
16845;SDS011;8539;53.188;8.696;2023-04-29T02:31:11;33.90;;;21.95;;
16845;SDS011;8539;53.188;8.696;2023-04-29T02:33:38;30.23;;;21.08;;
16845;SDS011;8539;53.188;8.696;2023-04-29T02:36:04;30.08;;;21.00;;
16845;SDS011;8539;53.188;8.696;2023-04-29T02:38:30;33.72;;;20.58;;
16845;SDS011;8539;53.188;8.696;2023-04-29T02:40:56;32.95;;;20.70;;
16845;SDS011;8539;53.188;8.696;2023-04-29T02:43:22;33.90;;;20.67;;
16845;SDS011;8539;53.188;8.696;2023-04-29T02:45:48;30.38;;;20.50;;
16845;SDS011;8539;53.188;8.696;2023-04-29T02:48:15;28.25;;;19.92;;
16845;SDS011;8539;53.188;8.696;2023-04-29T02:50:41;29.45;;;19.00;;
16845;SDS011;8539;53.188;8.696;2023-04-29T02:53:07;33.10;;;18.90;;
16845;SDS011;8539;53.188;8.696;2023-04-29T02:55:33;25.17;;;18.98;;
16845;SDS011;8539;53.188;8.696;2023-04-29T02:58:00;33.03;;;21.58;;
16845;SDS011;8539;53.188;8.696;2023-04-29T03:00:26;30.35;;;21.58;;
16845;SDS011;8539;53.188;8.696;2023-04-29T03:02:52;29.40;;;20.00;;
16845;SDS011;8539;53.188;8.696;2023-04-29T03:05:18;28.20;;;18.98;;
16845;SDS011;8539;53.188;8.696;2023-04-29T03:07:44;27.13;;;20.33;;
16845;SDS011;8539;53.188;8.696;2023-04-29T03:10:10;31.48;;;20.75;;
16845;SDS011;8539;53.188;8.696;2023-04-29T03:12:36;33.17;;;21.63;;
16845;SDS011;8539;53.188;8.696;2023-04-29T03:15:05;29.80;;;20.40;;
16845;SDS011;8539;53.188;8.696;2023-04-29T03:17:32;29.23;;;21.05;;
16845;SDS011;8539;53.188;8.696;2023-04-29T03:19:59;33.85;;;22.13;;
16845;SDS011;8539;53.188;8.696;2023-04-29T03:22:25;32.17;;;20.63;;
16845;SDS011;8539;53.188;8.696;2023-04-29T03:24:51;27.23;;;19.77;;
16845;SDS011;8539;53.188;8.696;2023-04-29T03:27:17;33.78;;;20.65;;
16845;SDS011;8539;53.188;8.696;2023-04-29T03:29:44;33.55;;;21.73;;
16845;SDS011;8539;53.188;8.696;2023-04-29T03:32:10;29.02;;;21.35;;
16845;SDS011;8539;53.188;8.696;2023-04-29T03:34:36;29.13;;;20.85;;
16845;SDS011;8539;53.188;8.696;2023-04-29T03:37:02;31.98;;;21.80;;
16845;SDS011;8539;53.188;8.696;2023-04-29T03:39:28;32.90;;;22.23;;
16845;SDS011;8539;53.188;8.696;2023-04-29T03:41:57;26.92;;;20.05;;
16845;SDS011;8539;53.188;8.696;2023-04-29T03:44:24;36.08;;;23.48;;
16845;SDS011;8539;53.188;8.696;2023-04-29T03:46:51;30.58;;;21.38;;
16845;SDS011;8539;53.188;8.696;2023-04-29T03:49:17;32.83;;;24.20;;
16845;SDS011;8539;53.188;8.696;2023-04-29T03:51:43;32.22;;;23.67;;
16845;SDS011;8539;53.188;8.696;2023-04-29T03:54:12;33.92;;;21.35;;
16845;SDS011;8539;53.188;8.696;2023-04-29T03:56:38;32.45;;;23.20;;
16845;SDS011;8539;53.188;8.696;2023-04-29T03:59:04;36.30;;;23.92;;
16845;SDS011;8539;53.188;8.696;2023-04-29T04:01:30;35.20;;;21.20;;
16845;SDS011;8539;53.188;8.696;2023-04-29T04:03:57;34.55;;;23.35;;
16845;SDS011;8539;53.188;8.696;2023-04-29T04:06:23;37.75;;;23.55;;
16845;SDS011;8539;53.188;8.696;2023-04-29T04:08:49;34.60;;;24.00;;
16845;SDS011;8539;53.188;8.696;2023-04-29T04:11:15;33.45;;;22.85;;
16845;SDS011;8539;53.188;8.696;2023-04-29T04:13:41;30.85;;;22.52;;
16845;SDS011;8539;53.188;8.696;2023-04-29T04:16:10;35.45;;;23.48;;
16845;SDS011;8539;53.188;8.696;2023-04-29T04:18:37;36.25;;;24.63;;
16845;SDS011;8539;53.188;8.696;2023-04-29T04:21:09;35.08;;;21.92;;
16845;SDS011;8539;53.188;8.696;2023-04-29T04:23:36;36.55;;;24.27;;
16845;SDS011;8539;53.188;8.696;2023-04-29T04:26:05;38.47;;;25.67;;
16845;SDS011;8539;53.188;8.696;2023-04-29T04:28:31;35.50;;;24.60;;
16845;SDS011;8539;53.188;8.696;2023-04-29T04:30:57;36.28;;;23.17;;
16845;SDS011;8539;53.188;8.696;2023-04-29T04:33:24;39.95;;;26.27;;
16845;SDS011;8539;53.188;8.696;2023-04-29T04:35:51;44.03;;;26.02;;
16845;SDS011;8539;53.188;8.696;2023-04-29T04:38:17;40.83;;;25.95;;
16845;SDS011;8539;53.188;8.696;2023-04-29T04:40:43;37.75;;;26.33;;
16845;SDS011;8539;53.188;8.696;2023-04-29T04:43:09;32.67;;;23.50;;
16845;SDS011;8539;53.188;8.696;2023-04-29T04:45:35;39.83;;;24.05;;
16845;SDS011;8539;53.188;8.696;2023-04-29T04:48:01;36.83;;;26.50;;
16845;SDS011;8539;53.188;8.696;2023-04-29T04:50:28;37.17;;;27.30;;
16845;SDS011;8539;53.188;8.696;2023-04-29T04:52:55;34.45;;;24.23;;
16845;SDS011;8539;53.188;8.696;2023-04-29T04:55:22;43.08;;;25.73;;
16845;SDS011;8539;53.188;8.696;2023-04-29T04:57:48;43.33;;;26.38;;
16845;SDS011;8539;53.188;8.696;2023-04-29T05:00:14;39.38;;;28.02;;
16845;SDS011;8539;53.188;8.696;2023-04-29T05:02:41;43.20;;;28.08;;
16845;SDS011;8539;53.188;8.696;2023-04-29T05:05:07;42.58;;;26.55;;
16845;SDS011;8539;53.188;8.696;2023-04-29T05:07:33;41.95;;;27.48;;
16845;SDS011;8539;53.188;8.696;2023-04-29T05:10:00;38.63;;;26.02;;
16845;SDS011;8539;53.188;8.696;2023-04-29T05:12:27;46.67;;;28.00;;
16845;SDS011;8539;53.188;8.696;2023-04-29T05:14:55;40.95;;;27.27;;
16845;SDS011;8539;53.188;8.696;2023-04-29T05:17:22;43.28;;;28.08;;
16845;SDS011;8539;53.188;8.696;2023-04-29T05:19:49;44.30;;;28.55;;
16845;SDS011;8539;53.188;8.696;2023-04-29T05:22:15;43.10;;;28.35;;
16845;SDS011;8539;53.188;8.696;2023-04-29T05:24:41;45.42;;;29.38;;
16845;SDS011;8539;53.188;8.696;2023-04-29T05:27:07;38.65;;;27.08;;
16845;SDS011;8539;53.188;8.696;2023-04-29T05:29:33;40.30;;;27.60;;
16845;SDS011;8539;53.188;8.696;2023-04-29T05:31:59;40.90;;;26.40;;
16845;SDS011;8539;53.188;8.696;2023-04-29T05:34:26;42.95;;;28.60;;
16845;SDS011;8539;53.188;8.696;2023-04-29T05:36:52;46.55;;;28.33;;
16845;SDS011;8539;53.188;8.696;2023-04-29T05:39:18;48.45;;;28.75;;
16845;SDS011;8539;53.188;8.696;2023-04-29T05:41:44;44.13;;;28.70;;
16845;SDS011;8539;53.188;8.696;2023-04-29T05:44:10;42.03;;;27.35;;
16845;SDS011;8539;53.188;8.696;2023-04-29T05:46:36;43.80;;;26.67;;
16845;SDS011;8539;53.188;8.696;2023-04-29T05:49:02;42.95;;;27.05;;
16845;SDS011;8539;53.188;8.696;2023-04-29T05:51:28;38.15;;;25.58;;
16845;SDS011;8539;53.188;8.696;2023-04-29T05:53:55;44.13;;;26.73;;
16845;SDS011;8539;53.188;8.696;2023-04-29T05:56:21;43.97;;;27.83;;
16845;SDS011;8539;53.188;8.696;2023-04-29T05:58:48;45.83;;;26.58;;
16845;SDS011;8539;53.188;8.696;2023-04-29T06:01:14;38.53;;;24.08;;
16845;SDS011;8539;53.188;8.696;2023-04-29T06:03:42;37.63;;;24.33;;
16845;SDS011;8539;53.188;8.696;2023-04-29T06:06:08;40.65;;;25.17;;
16845;SDS011;8539;53.188;8.696;2023-04-29T06:08:34;36.15;;;25.30;;
16845;SDS011;8539;53.188;8.696;2023-04-29T06:11:01;39.88;;;24.92;;
16845;SDS011;8539;53.188;8.696;2023-04-29T06:13:31;41.70;;;25.73;;
16845;SDS011;8539;53.188;8.696;2023-04-29T06:15:57;40.90;;;23.80;;
16845;SDS011;8539;53.188;8.696;2023-04-29T06:18:24;31.77;;;22.33;;
16845;SDS011;8539;53.188;8.696;2023-04-29T06:20:50;34.72;;;24.20;;
16845;SDS011;8539;53.188;8.696;2023-04-29T06:23:16;35.35;;;24.40;;
16845;SDS011;8539;53.188;8.696;2023-04-29T06:25:42;33.20;;;22.67;;
16845;SDS011;8539;53.188;8.696;2023-04-29T06:28:08;34.38;;;21.98;;
16845;SDS011;8539;53.188;8.696;2023-04-29T06:30:35;36.50;;;22.77;;
16845;SDS011;8539;53.188;8.696;2023-04-29T06:33:01;38.58;;;23.85;;
16845;SDS011;8539;53.188;8.696;2023-04-29T06:35:27;41.72;;;23.75;;
16845;SDS011;8539;53.188;8.696;2023-04-29T06:37:53;37.72;;;23.17;;
16845;SDS011;8539;53.188;8.696;2023-04-29T06:40:21;30.75;;;21.45;;
16845;SDS011;8539;53.188;8.696;2023-04-29T06:42:47;28.80;;;20.23;;
16845;SDS011;8539;53.188;8.696;2023-04-29T06:45:13;27.42;;;19.15;;
16845;SDS011;8539;53.188;8.696;2023-04-29T06:47:39;41.08;;;22.58;;
16845;SDS011;8539;53.188;8.696;2023-04-29T06:50:05;34.50;;;20.58;;
16845;SDS011;8539;53.188;8.696;2023-04-29T06:52:31;43.17;;;20.08;;
16845;SDS011;8539;53.188;8.696;2023-04-29T06:54:58;36.55;;;19.17;;
16845;SDS011;8539;53.188;8.696;2023-04-29T06:57:24;31.02;;;18.33;;
16845;SDS011;8539;53.188;8.696;2023-04-29T06:59:50;26.20;;;16.88;;
16845;SDS011;8539;53.188;8.696;2023-04-29T07:02:16;34.17;;;17.77;;
16845;SDS011;8539;53.188;8.696;2023-04-29T07:04:42;28.10;;;18.35;;
16845;SDS011;8539;53.188;8.696;2023-04-29T07:07:08;31.67;;;18.45;;
16845;SDS011;8539;53.188;8.696;2023-04-29T07:09:34;28.98;;;18.17;;
16845;SDS011;8539;53.188;8.696;2023-04-29T07:12:00;23.85;;;17.35;;
16845;SDS011;8539;53.188;8.696;2023-04-29T07:14:27;28.48;;;18.23;;
16845;SDS011;8539;53.188;8.696;2023-04-29T07:16:53;26.70;;;16.33;;
16845;SDS011;8539;53.188;8.696;2023-04-29T07:19:19;31.25;;;17.60;;
16845;SDS011;8539;53.188;8.696;2023-04-29T07:21:46;25.38;;;16.30;;
16845;SDS011;8539;53.188;8.696;2023-04-29T07:24:12;22.55;;;16.77;;
16845;SDS011;8539;53.188;8.696;2023-04-29T07:26:38;21.92;;;16.48;;
16845;SDS011;8539;53.188;8.696;2023-04-29T07:29:05;27.15;;;16.58;;
16845;SDS011;8539;53.188;8.696;2023-04-29T07:31:31;23.17;;;14.70;;
16845;SDS011;8539;53.188;8.696;2023-04-29T07:33:57;25.27;;;14.35;;
16845;SDS011;8539;53.188;8.696;2023-04-29T07:36:24;20.90;;;14.32;;
16845;SDS011;8539;53.188;8.696;2023-04-29T07:38:50;20.20;;;13.75;;
16845;SDS011;8539;53.188;8.696;2023-04-29T07:41:16;20.35;;;14.18;;
16845;SDS011;8539;53.188;8.696;2023-04-29T07:43:42;24.02;;;14.55;;
16845;SDS011;8539;53.188;8.696;2023-04-29T07:46:08;23.02;;;12.80;;
16845;SDS011;8539;53.188;8.696;2023-04-29T07:48:37;22.10;;;13.90;;
16845;SDS011;8539;53.188;8.696;2023-04-29T07:51:04;24.52;;;13.93;;
16845;SDS011;8539;53.188;8.696;2023-04-29T07:53:31;21.70;;;13.25;;
16845;SDS011;8539;53.188;8.696;2023-04-29T07:55:57;22.63;;;13.07;;
16845;SDS011;8539;53.188;8.696;2023-04-29T07:58:23;21.05;;;13.10;;
16845;SDS011;8539;53.188;8.696;2023-04-29T08:00:49;20.63;;;13.38;;
16845;SDS011;8539;53.188;8.696;2023-04-29T08:03:15;18.25;;;12.55;;
16845;SDS011;8539;53.188;8.696;2023-04-29T08:05:41;20.65;;;11.82;;
16845;SDS011;8539;53.188;8.696;2023-04-29T08:08:08;21.20;;;12.55;;
16845;SDS011;8539;53.188;8.696;2023-04-29T08:10:36;23.33;;;12.15;;
16845;SDS011;8539;53.188;8.696;2023-04-29T08:13:05;19.75;;;13.73;;
16845;SDS011;8539;53.188;8.696;2023-04-29T08:15:31;20.38;;;12.15;;
16845;SDS011;8539;53.188;8.696;2023-04-29T08:17:57;20.02;;;13.55;;
16845;SDS011;8539;53.188;8.696;2023-04-29T08:20:23;21.45;;;13.13;;
16845;SDS011;8539;53.188;8.696;2023-04-29T08:22:50;21.25;;;11.90;;
16845;SDS011;8539;53.188;8.696;2023-04-29T08:25:16;17.08;;;11.27;;
16845;SDS011;8539;53.188;8.696;2023-04-29T08:27:42;42.95;;;14.90;;
16845;SDS011;8539;53.188;8.696;2023-04-29T08:30:10;17.77;;;11.35;;
16845;SDS011;8539;53.188;8.696;2023-04-29T08:32:36;26.33;;;12.13;;
16845;SDS011;8539;53.188;8.696;2023-04-29T08:35:02;19.75;;;12.45;;
16845;SDS011;8539;53.188;8.696;2023-04-29T08:37:28;19.48;;;10.80;;
16845;SDS011;8539;53.188;8.696;2023-04-29T08:39:55;17.08;;;11.18;;
16845;SDS011;8539;53.188;8.696;2023-04-29T08:42:27;19.25;;;10.73;;
16845;SDS011;8539;53.188;8.696;2023-04-29T08:44:58;15.27;;;10.45;;
16845;SDS011;8539;53.188;8.696;2023-04-29T08:47:25;17.38;;;10.90;;
16845;SDS011;8539;53.188;8.696;2023-04-29T08:49:56;18.95;;;10.85;;
16845;SDS011;8539;53.188;8.696;2023-04-29T08:52:27;14.70;;;9.98;;
16845;SDS011;8539;53.188;8.696;2023-04-29T08:54:52;16.05;;;10.60;;
16845;SDS011;8539;53.188;8.696;2023-04-29T08:57:19;13.15;;;9.55;;
16845;SDS011;8539;53.188;8.696;2023-04-29T08:59:47;15.13;;;10.05;;
16845;SDS011;8539;53.188;8.696;2023-04-29T09:02:14;15.68;;;8.77;;
16845;SDS011;8539;53.188;8.696;2023-04-29T09:04:46;17.08;;;10.27;;
16845;SDS011;8539;53.188;8.696;2023-04-29T09:07:15;10.30;;;9.00;;
16845;SDS011;8539;53.188;8.696;2023-04-29T09:09:42;11.85;;;9.35;;
16845;SDS011;8539;53.188;8.696;2023-04-29T09:12:08;13.05;;;9.57;;
16845;SDS011;8539;53.188;8.696;2023-04-29T09:14:34;14.75;;;8.80;;
16845;SDS011;8539;53.188;8.696;2023-04-29T09:17:01;13.27;;;9.02;;
16845;SDS011;8539;53.188;8.696;2023-04-29T09:19:32;9.93;;;8.55;;
16845;SDS011;8539;53.188;8.696;2023-04-29T09:21:59;14.60;;;8.63;;
16845;SDS011;8539;53.188;8.696;2023-04-29T09:24:27;13.10;;;8.35;;
16845;SDS011;8539;53.188;8.696;2023-04-29T09:26:54;12.57;;;8.82;;
16845;SDS011;8539;53.188;8.696;2023-04-29T09:29:21;12.65;;;8.05;;
16845;SDS011;8539;53.188;8.696;2023-04-29T09:31:47;13.00;;;8.45;;
16845;SDS011;8539;53.188;8.696;2023-04-29T09:34:14;14.88;;;8.40;;
16845;SDS011;8539;53.188;8.696;2023-04-29T09:36:47;10.80;;;9.25;;
16845;SDS011;8539;53.188;8.696;2023-04-29T09:39:15;14.73;;;9.20;;
16845;SDS011;8539;53.188;8.696;2023-04-29T09:46:57;13.43;;;7.97;;
16845;SDS011;8539;53.188;8.696;2023-04-29T09:49:28;13.18;;;8.55;;
16845;SDS011;8539;53.188;8.696;2023-04-29T09:51:57;12.18;;;7.97;;
16845;SDS011;8539;53.188;8.696;2023-04-29T09:54:27;12.85;;;8.38;;
16845;SDS011;8539;53.188;8.696;2023-04-29T09:56:54;16.23;;;9.05;;
16845;SDS011;8539;53.188;8.696;2023-04-29T09:59:21;12.18;;;7.45;;
16845;SDS011;8539;53.188;8.696;2023-04-29T10:01:49;9.82;;;7.57;;
16845;SDS011;8539;53.188;8.696;2023-04-29T10:04:21;10.57;;;7.45;;
16845;SDS011;8539;53.188;8.696;2023-04-29T10:06:49;11.50;;;7.75;;
16845;SDS011;8539;53.188;8.696;2023-04-29T10:09:17;9.00;;;7.78;;
16845;SDS011;8539;53.188;8.696;2023-04-29T10:11:45;10.02;;;7.20;;
16845;SDS011;8539;53.188;8.696;2023-04-29T10:14:16;12.88;;;7.25;;
16845;SDS011;8539;53.188;8.696;2023-04-29T10:16:47;15.02;;;7.00;;
16845;SDS011;8539;53.188;8.696;2023-04-29T10:19:51;11.70;;;7.55;;
16845;SDS011;8539;53.188;8.696;2023-04-29T10:22:56;10.55;;;7.10;;
16845;SDS011;8539;53.188;8.696;2023-04-29T10:25:22;9.18;;;6.45;;
16845;SDS011;8539;53.188;8.696;2023-04-29T10:27:52;9.07;;;6.35;;
16845;SDS011;8539;53.188;8.696;2023-04-29T10:30:20;7.30;;;6.07;;
16845;SDS011;8539;53.188;8.696;2023-04-29T10:32:47;9.40;;;6.90;;
16845;SDS011;8539;53.188;8.696;2023-04-29T10:35:15;12.80;;;7.25;;
16845;SDS011;8539;53.188;8.696;2023-04-29T10:37:44;6.93;;;6.00;;
16845;SDS011;8539;53.188;8.696;2023-04-29T10:42:53;6.55;;;5.57;;
16845;SDS011;8539;53.188;8.696;2023-04-29T10:45:26;10.60;;;7.07;;
16845;SDS011;8539;53.188;8.696;2023-04-29T10:53:11;8.52;;;5.60;;
16845;SDS011;8539;53.188;8.696;2023-04-29T10:55:41;7.80;;;5.90;;
16845;SDS011;8539;53.188;8.696;2023-04-29T11:01:00;13.02;;;5.93;;
16845;SDS011;8539;53.188;8.696;2023-04-29T11:06:13;13.35;;;5.82;;
16845;SDS011;8539;53.188;8.696;2023-04-29T11:08:40;8.25;;;5.68;;
16845;SDS011;8539;53.188;8.696;2023-04-29T11:11:07;8.05;;;4.88;;
16845;SDS011;8539;53.188;8.696;2023-04-29T11:13:37;7.28;;;5.07;;
16845;SDS011;8539;53.188;8.696;2023-04-29T11:16:08;8.15;;;4.65;;
16845;SDS011;8539;53.188;8.696;2023-04-29T11:18:36;11.63;;;4.75;;
16845;SDS011;8539;53.188;8.696;2023-04-29T11:21:22;8.27;;;4.32;;
16845;SDS011;8539;53.188;8.696;2023-04-29T11:23:49;7.35;;;4.43;;
16845;SDS011;8539;53.188;8.696;2023-04-29T11:26:19;7.03;;;3.97;;
16845;SDS011;8539;53.188;8.696;2023-04-29T11:28:46;11.27;;;4.32;;
16845;SDS011;8539;53.188;8.696;2023-04-29T11:31:12;8.05;;;3.95;;
16845;SDS011;8539;53.188;8.696;2023-04-29T11:33:38;8.43;;;3.88;;
16845;SDS011;8539;53.188;8.696;2023-04-29T11:36:04;7.32;;;4.30;;
16845;SDS011;8539;53.188;8.696;2023-04-29T11:38:30;10.48;;;4.88;;
16845;SDS011;8539;53.188;8.696;2023-04-29T11:40:58;9.88;;;3.97;;
16845;SDS011;8539;53.188;8.696;2023-04-29T11:43:24;5.68;;;4.05;;
16845;SDS011;8539;53.188;8.696;2023-04-29T11:45:51;7.53;;;3.78;;
16845;SDS011;8539;53.188;8.696;2023-04-29T11:48:18;4.85;;;3.38;;
16845;SDS011;8539;53.188;8.696;2023-04-29T11:50:58;4.50;;;3.78;;
16845;SDS011;8539;53.188;8.696;2023-04-29T11:53:24;6.32;;;3.90;;
16845;SDS011;8539;53.188;8.696;2023-04-29T11:55:52;5.47;;;4.28;;
16845;SDS011;8539;53.188;8.696;2023-04-29T11:58:19;5.28;;;3.75;;
16845;SDS011;8539;53.188;8.696;2023-04-29T12:00:46;6.45;;;4.32;;
16845;SDS011;8539;53.188;8.696;2023-04-29T12:03:14;8.45;;;5.22;;
16845;SDS011;8539;53.188;8.696;2023-04-29T12:10:46;10.55;;;4.75;;
16845;SDS011;8539;53.188;8.696;2023-04-29T12:13:13;7.75;;;4.57;;
16845;SDS011;8539;53.188;8.696;2023-04-29T12:15:47;13.23;;;5.60;;
16845;SDS011;8539;53.188;8.696;2023-04-29T12:18:15;6.43;;;4.78;;
16845;SDS011;8539;53.188;8.696;2023-04-29T12:20:43;6.18;;;4.65;;
16845;SDS011;8539;53.188;8.696;2023-04-29T12:25:39;8.88;;;4.50;;
16845;SDS011;8539;53.188;8.696;2023-04-29T12:28:12;10.48;;;4.78;;
16845;SDS011;8539;53.188;8.696;2023-04-29T12:30:38;9.07;;;4.90;;
16845;SDS011;8539;53.188;8.696;2023-04-29T12:33:07;8.55;;;4.65;;
16845;SDS011;8539;53.188;8.696;2023-04-29T12:35:34;7.70;;;4.95;;
16845;SDS011;8539;53.188;8.696;2023-04-29T12:38:01;4.90;;;3.83;;
16845;SDS011;8539;53.188;8.696;2023-04-29T12:40:28;8.23;;;4.50;;
16845;SDS011;8539;53.188;8.696;2023-04-29T12:42:54;8.60;;;4.55;;
16845;SDS011;8539;53.188;8.696;2023-04-29T12:45:25;7.85;;;4.35;;
16845;SDS011;8539;53.188;8.696;2023-04-29T12:47:56;6.65;;;4.45;;
16845;SDS011;8539;53.188;8.696;2023-04-29T12:50:32;5.50;;;3.70;;
16845;SDS011;8539;53.188;8.696;2023-04-29T12:55:24;5.95;;;3.42;;
16845;SDS011;8539;53.188;8.696;2023-04-29T12:57:50;6.35;;;3.40;;
16845;SDS011;8539;53.188;8.696;2023-04-29T13:00:17;4.53;;;3.67;;
16845;SDS011;8539;53.188;8.696;2023-04-29T13:02:45;6.72;;;2.75;;
16845;SDS011;8539;53.188;8.696;2023-04-29T13:05:12;8.18;;;2.75;;
16845;SDS011;8539;53.188;8.696;2023-04-29T13:07:38;5.28;;;2.63;;
16845;SDS011;8539;53.188;8.696;2023-04-29T13:10:05;3.78;;;2.17;;
16845;SDS011;8539;53.188;8.696;2023-04-29T13:12:31;3.33;;;2.10;;
16845;SDS011;8539;53.188;8.696;2023-04-29T13:14:58;6.25;;;2.30;;
16845;SDS011;8539;53.188;8.696;2023-04-29T13:17:24;3.92;;;2.15;;
16845;SDS011;8539;53.188;8.696;2023-04-29T13:19:50;2.88;;;1.75;;
16845;SDS011;8539;53.188;8.696;2023-04-29T13:22:16;6.63;;;2.40;;
16845;SDS011;8539;53.188;8.696;2023-04-29T13:24:42;3.88;;;1.92;;
16845;SDS011;8539;53.188;8.696;2023-04-29T13:27:08;6.07;;;1.90;;
16845;SDS011;8539;53.188;8.696;2023-04-29T13:29:35;5.53;;;2.55;;
16845;SDS011;8539;53.188;8.696;2023-04-29T13:32:00;4.03;;;1.80;;
16845;SDS011;8539;53.188;8.696;2023-04-29T13:34:27;3.97;;;1.80;;
16845;SDS011;8539;53.188;8.696;2023-04-29T13:36:53;5.75;;;2.35;;
16845;SDS011;8539;53.188;8.696;2023-04-29T13:39:19;4.65;;;2.10;;
16845;SDS011;8539;53.188;8.696;2023-04-29T13:41:47;7.40;;;2.15;;
16845;SDS011;8539;53.188;8.696;2023-04-29T13:44:13;5.78;;;2.08;;
16845;SDS011;8539;53.188;8.696;2023-04-29T13:46:39;3.72;;;2.28;;
16845;SDS011;8539;53.188;8.696;2023-04-29T13:49:05;5.50;;;2.50;;
16845;SDS011;8539;53.188;8.696;2023-04-29T13:51:31;3.85;;;2.28;;
16845;SDS011;8539;53.188;8.696;2023-04-29T13:53:57;6.50;;;2.10;;
16845;SDS011;8539;53.188;8.696;2023-04-29T13:56:23;4.05;;;2.40;;
16845;SDS011;8539;53.188;8.696;2023-04-29T13:58:52;4.55;;;1.80;;
16845;SDS011;8539;53.188;8.696;2023-04-29T14:01:18;5.97;;;1.70;;
16845;SDS011;8539;53.188;8.696;2023-04-29T14:03:46;5.07;;;1.75;;
16845;SDS011;8539;53.188;8.696;2023-04-29T14:06:13;1.75;;;1.45;;
16845;SDS011;8539;53.188;8.696;2023-04-29T14:08:40;5.43;;;2.08;;
16845;SDS011;8539;53.188;8.696;2023-04-29T14:11:06;5.47;;;2.33;;
16845;SDS011;8539;53.188;8.696;2023-04-29T14:13:32;4.90;;;2.05;;
16845;SDS011;8539;53.188;8.696;2023-04-29T14:15:58;4.25;;;1.70;;
16845;SDS011;8539;53.188;8.696;2023-04-29T14:18:27;4.10;;;2.05;;
16845;SDS011;8539;53.188;8.696;2023-04-29T14:20:55;2.95;;;2.00;;
16845;SDS011;8539;53.188;8.696;2023-04-29T14:23:22;2.65;;;2.28;;
16845;SDS011;8539;53.188;8.696;2023-04-29T14:25:48;3.78;;;2.03;;
16845;SDS011;8539;53.188;8.696;2023-04-29T14:28:14;6.13;;;2.53;;
16845;SDS011;8539;53.188;8.696;2023-04-29T14:30:40;2.42;;;1.90;;
16845;SDS011;8539;53.188;8.696;2023-04-29T14:33:08;3.50;;;2.10;;
16845;SDS011;8539;53.188;8.696;2023-04-29T14:35:34;3.47;;;2.13;;
16845;SDS011;8539;53.188;8.696;2023-04-29T14:38:00;5.15;;;2.20;;
16845;SDS011;8539;53.188;8.696;2023-04-29T14:40:26;2.88;;;2.03;;
16845;SDS011;8539;53.188;8.696;2023-04-29T14:42:52;8.70;;;2.95;;
16845;SDS011;8539;53.188;8.696;2023-04-29T14:45:18;4.22;;;2.40;;
16845;SDS011;8539;53.188;8.696;2023-04-29T14:47:44;4.90;;;2.58;;
16845;SDS011;8539;53.188;8.696;2023-04-29T14:50:11;3.53;;;2.50;;
16845;SDS011;8539;53.188;8.696;2023-04-29T14:52:37;4.72;;;2.00;;
16845;SDS011;8539;53.188;8.696;2023-04-29T14:55:03;7.97;;;2.20;;
16845;SDS011;8539;53.188;8.696;2023-04-29T14:57:29;4.45;;;2.72;;
16845;SDS011;8539;53.188;8.696;2023-04-29T14:59:55;7.50;;;2.63;;
16845;SDS011;8539;53.188;8.696;2023-04-29T15:02:21;6.68;;;2.75;;
16845;SDS011;8539;53.188;8.696;2023-04-29T15:04:48;8.88;;;2.67;;
16845;SDS011;8539;53.188;8.696;2023-04-29T15:07:14;6.20;;;2.40;;
16845;SDS011;8539;53.188;8.696;2023-04-29T15:09:41;4.10;;;2.65;;
16845;SDS011;8539;53.188;8.696;2023-04-29T15:12:07;4.65;;;2.58;;
16845;SDS011;8539;53.188;8.696;2023-04-29T15:14:34;4.63;;;2.50;;
16845;SDS011;8539;53.188;8.696;2023-04-29T15:17:00;3.50;;;2.42;;
16845;SDS011;8539;53.188;8.696;2023-04-29T15:19:26;4.03;;;2.20;;